Time;durP1;ratioP1;P1;durP2;ratioP2;P2;SDS_P1;SDS_P2;PMS_P1;PMS_P2;Temp;Humidity;BMP_temperature;BMP_pressure;BME280_temperature;BME280_humidity;BME280_pressure;Samples;Min_cycle;Max_cycle;Signal;HPM_P1;HPM_P2
2023/09/08 00:01:57;;;;;;;5.25;4.10;;;23.20;64.70;;;;;;5047816;28;20029;-86
2023/09/08 00:04:22;;;;;;;6.18;4.60;;;23.20;64.80;;;;;;5042991;28;20053;-85
2023/09/08 00:06:48;;;;;;;5.32;4.15;;;23.10;64.90;;;;;;5044194;28;20029;-85
2023/09/08 00:09:14;;;;;;;5.28;3.70;;;23.10;64.80;;;;;;5051234;28;20040;-84
2023/09/08 00:11:39;;;;;;;6.35;4.30;;;23.10;64.80;;;;;;5046958;28;20213;-84
2023/09/08 00:14:05;;;;;;;5.15;4.00;;;23.10;65.00;;;;;;5049173;28;20045;-85
2023/09/08 00:16:31;;;;;;;5.65;4.32;;;23.00;64.90;;;;;;5049296;28;20120;-84
2023/09/08 00:18:58;;;;;;;5.57;4.80;;;23.00;65.20;;;;;;5047243;28;20029;-84
2023/09/08 00:21:25;;;;;;;6.70;5.03;;;22.90;65.40;;;;;;5046656;28;20031;-85
2023/09/08 00:23:51;;;;;;;7.38;4.40;;;22.90;65.60;;;;;;5049171;28;20479;-85
2023/09/08 00:26:17;;;;;;;4.88;4.30;;;22.90;65.50;;;;;;5051308;28;20021;-84
2023/09/08 00:28:42;;;;;;;5.60;4.50;;;22.90;65.50;;;;;;5053071;28;20040;-85
2023/09/08 00:31:08;;;;;;;7.57;4.65;;;22.90;65.60;;;;;;5050932;28;20095;-84
2023/09/08 00:33:34;;;;;;;5.45;4.50;;;22.80;65.50;;;;;;5051264;28;20024;-84
2023/09/08 00:35:59;;;;;;;5.32;4.40;;;22.80;65.40;;;;;;5052244;28;20083;-84
2023/09/08 00:38:25;;;;;;;6.20;4.07;;;22.80;65.40;;;;;;5057154;28;20479;-85
2023/09/08 00:40:50;;;;;;;6.15;3.70;;;22.80;65.50;;;;;;5057939;28;20071;-85
2023/09/08 00:43:17;;;;;;;7.28;4.40;;;22.80;65.60;;;;;;5052783;28;20033;-85
2023/09/08 00:45:43;;;;;;;6.15;4.30;;;22.80;65.50;;;;;;5059213;28;20032;-84
2023/09/08 00:48:09;;;;;;;5.20;4.15;;;22.80;65.60;;;;;;5054436;28;20025;-85
2023/09/08 00:50:36;;;;;;;5.80;4.20;;;22.80;65.60;;;;;;5056946;28;20025;-85
2023/09/08 00:53:04;;;;;;;5.55;4.05;;;22.70;65.60;;;;;;5051347;28;20051;-85
2023/09/08 00:55:31;;;;;;;4.97;3.97;;;22.70;65.70;;;;;;5054696;28;20029;-85
2023/09/08 00:57:58;;;;;;;4.85;4.13;;;22.70;65.80;;;;;;5052332;28;20033;-85
2023/09/08 01:00:24;;;;;;;7.07;4.68;;;22.70;65.80;;;;;;5052564;28;20032;-85
2023/09/08 01:02:50;;;;;;;6.15;4.30;;;22.60;65.80;;;;;;5051784;28;20503;-84
2023/09/08 01:05:16;;;;;;;5.38;4.53;;;22.60;66.00;;;;;;5050896;28;20064;-84
2023/09/08 01:07:42;;;;;;;6.25;4.68;;;22.50;66.10;;;;;;5050368;28;20526;-85
2023/09/08 01:10:08;;;;;;;5.85;4.38;;;22.50;66.10;;;;;;5051176;28;20459;-85
2023/09/08 01:12:34;;;;;;;5.63;4.20;;;22.50;66.10;;;;;;5052419;28;20055;-85
2023/09/08 01:15:01;;;;;;;7.50;4.70;;;22.50;66.10;;;;;;5049012;28;20114;-85
2023/09/08 01:17:27;;;;;;;5.53;4.03;;;22.50;66.10;;;;;;5051890;28;20029;-85
2023/09/08 01:19:55;;;;;;;5.88;4.65;;;22.50;66.10;;;;;;5051105;28;20429;-85
2023/09/08 01:22:45;;;;;;;6.32;4.30;;;22.50;66.30;;;;;;5051760;28;20656;-85
2023/09/08 01:25:17;;;;;;;6.03;4.40;;;22.50;66.30;;;;;;5058660;28;20027;-85
2023/09/08 01:27:46;;;;;;;5.45;4.20;;;22.40;66.30;;;;;;5050863;28;20039;-84
2023/09/08 01:30:13;;;;;;;6.15;4.47;;;22.40;66.30;;;;;;5051016;28;20025;-85
2023/09/08 01:32:40;;;;;;;7.47;4.22;;;22.40;66.40;;;;;;5060297;28;20029;-85
2023/09/08 01:35:07;;;;;;;5.10;4.13;;;22.40;66.40;;;;;;5047757;28;20529;-85
2023/09/08 01:37:33;;;;;;;5.95;4.60;;;22.30;66.40;;;;;;5058790;28;20066;-85
2023/09/08 01:39:58;;;;;;;7.38;4.63;;;22.30;66.60;;;;;;5048596;28;20025;-85
2023/09/08 01:42:24;;;;;;;8.00;5.32;;;22.30;66.70;;;;;;5057564;28;20025;-85
2023/09/08 01:44:49;;;;;;;6.20;5.20;;;22.30;66.70;;;;;;5051660;28;20033;-85
2023/09/08 01:47:16;;;;;;;8.80;6.82;;;22.30;66.70;;;;;;5057064;28;20383;-85
2023/09/08 01:49:42;;;;;;;7.55;4.93;;;22.20;66.90;;;;;;5051100;28;20039;-86
2023/09/08 01:52:07;;;;;;;7.47;5.28;;;22.30;66.90;;;;;;5048396;28;20025;-85
2023/09/08 01:54:33;;;;;;;6.60;4.63;;;22.20;67.00;;;;;;5051624;28;20031;-85
2023/09/08 01:56:59;;;;;;;6.60;4.78;;;22.20;66.90;;;;;;5058323;28;20509;-85
2023/09/08 01:59:24;;;;;;;6.55;5.10;;;22.20;67.00;;;;;;5048979;28;20029;-86
2023/09/08 02:01:50;;;;;;;5.85;4.47;;;22.10;67.10;;;;;;5054106;28;20031;-86
2023/09/08 02:04:15;;;;;;;7.00;4.60;;;22.10;67.20;;;;;;5051475;28;20104;-85
2023/09/08 02:06:41;;;;;;;5.93;4.70;;;22.10;67.30;;;;;;5056863;28;20025;-85
2023/09/08 02:09:09;;;;;;;7.32;5.35;;;22.10;67.30;;;;;;5052067;28;20029;-86
2023/09/08 02:11:35;;;;;;;6.63;4.50;;;22.00;67.50;;;;;;5050066;28;20155;-85
2023/09/08 02:14:00;;;;;;;5.35;4.13;;;22.00;67.40;;;;;;5050309;28;20139;-85
2023/09/08 02:16:26;;;;;;;6.07;4.65;;;22.00;67.30;;;;;;5053799;28;20033;-85
2023/09/08 02:18:51;;;;;;;6.10;4.70;;;22.00;67.40;;;;;;5053217;28;20017;-84
2023/09/08 02:21:17;;;;;;;6.60;5.00;;;22.00;67.50;;;;;;5049550;28;20041;-85
2023/09/08 02:23:42;;;;;;;10.40;5.55;;;21.90;67.60;;;;;;5051773;28;20698;-85
2023/09/08 02:26:08;;;;;;;6.60;4.75;;;21.90;67.70;;;;;;5051757;28;20024;-85
2023/09/08 02:28:34;;;;;;;6.65;4.57;;;21.90;67.60;;;;;;5050997;28;20025;-84
2023/09/08 02:30:59;;;;;;;8.38;5.00;;;21.90;67.60;;;;;;5048481;28;20033;-85
2023/09/08 02:33:25;;;;;;;6.15;4.75;;;21.90;67.70;;;;;;5049083;28;20032;-85
2023/09/08 02:35:51;;;;;;;5.88;4.38;;;21.90;67.70;;;;;;5054956;28;20146;-85
2023/09/08 02:38:17;;;;;;;6.95;5.20;;;21.90;67.70;;;;;;5050843;28;20028;-85
2023/09/08 02:40:43;;;;;;;6.47;4.82;;;21.80;67.80;;;;;;5054961;28;20529;-85
2023/09/08 02:43:08;;;;;;;5.50;4.28;;;21.80;67.80;;;;;;5056314;28;20533;-85
2023/09/08 02:45:34;;;;;;;6.03;4.38;;;21.80;67.70;;;;;;5054387;28;20027;-85
2023/09/08 02:48:00;;;;;;;6.65;4.47;;;21.80;67.70;;;;;;5052392;28;20032;-84
2023/09/08 02:50:25;;;;;;;7.55;5.53;;;21.80;67.80;;;;;;5046989;28;20198;-85
2023/09/08 02:52:52;;;;;;;7.07;4.72;;;21.80;67.90;;;;;;5051812;28;20033;-85
2023/09/08 02:55:17;;;;;;;6.10;5.38;;;21.70;68.00;;;;;;5048767;28;20017;-85
2023/09/08 02:57:43;;;;;;;6.47;4.88;;;21.70;68.20;;;;;;5058329;28;20040;-85
2023/09/08 03:00:09;;;;;;;8.65;6.03;;;21.70;68.20;;;;;;5050255;28;20504;-86
2023/09/08 03:02:35;;;;;;;7.82;5.68;;;21.70;68.40;;;;;;5049839;28;20048;-86
2023/09/08 03:05:01;;;;;;;5.97;5.20;;;21.70;68.40;;;;;;5050756;28;20029;-85
2023/09/08 03:07:27;;;;;;;5.72;5.13;;;21.60;68.40;;;;;;5052432;28;20086;-85
2023/09/08 03:09:53;;;;;;;8.18;5.07;;;21.60;68.50;;;;;;5049442;28;20032;-85
2023/09/08 03:12:19;;;;;;;5.85;4.80;;;21.60;68.60;;;;;;5048963;28;20173;-85
2023/09/08 03:14:45;;;;;;;8.07;5.35;;;21.60;68.50;;;;;;5053597;28;20127;-84
2023/09/08 03:17:12;;;;;;;6.93;5.55;;;21.70;68.50;;;;;;5048539;28;20029;-84
2023/09/08 03:19:38;;;;;;;5.97;4.80;;;21.60;68.60;;;;;;5050029;28;20028;-85
2023/09/08 03:22:04;;;;;;;5.68;4.72;;;21.60;68.50;;;;;;5050735;28;20013;-84
2023/09/08 03:24:30;;;;;;;6.55;4.78;;;21.60;68.50;;;;;;5047926;28;20414;-84
2023/09/08 03:26:57;;;;;;;6.72;5.00;;;21.60;68.50;;;;;;5048913;28;20028;-84
2023/09/08 03:29:23;;;;;;;5.53;4.40;;;21.60;68.50;;;;;;5048027;28;20025;-84
2023/09/08 03:31:49;;;;;;;9.30;5.95;;;21.60;68.50;;;;;;5050241;28;20031;-85
2023/09/08 03:34:14;;;;;;;6.53;4.68;;;21.50;68.60;;;;;;5046938;28;20112;-84
2023/09/08 03:36:40;;;;;;;7.00;5.00;;;21.60;68.70;;;;;;5049473;28;20028;-84
2023/09/08 03:39:06;;;;;;;7.25;4.80;;;21.60;68.70;;;;;;5049481;28;20380;-85
2023/09/08 03:41:32;;;;;;;7.65;5.28;;;21.50;68.80;;;;;;5047319;28;20387;-85
2023/09/08 03:43:57;;;;;;;8.10;5.50;;;21.50;68.90;;;;;;5046480;28;20445;-86
2023/09/08 03:46:25;;;;;;;7.60;6.03;;;21.40;68.90;;;;;;5049140;28;20501;-85
2023/09/08 03:48:50;;;;;;;6.60;5.55;;;21.40;69.10;;;;;;5052680;28;20386;-85
2023/09/08 03:51:16;;;;;;;6.50;4.97;;;21.40;69.20;;;;;;5052864;28;20285;-84
2023/09/08 03:53:42;;;;;;;6.68;5.70;;;21.40;69.30;;;;;;5053690;28;20025;-87
2023/09/08 03:56:07;;;;;;;6.88;5.35;;;21.40;69.30;;;;;;5053773;28;20430;-84
2023/09/08 03:58:33;;;;;;;9.48;7.10;;;21.40;69.30;;;;;;5048156;28;20113;-86
2023/09/08 04:00:59;;;;;;;11.90;6.43;;;21.40;69.50;;;;;;5042118;28;20041;-84
2023/09/08 04:03:24;;;;;;;6.88;5.70;;;21.30;69.60;;;;;;5052898;28;20025;-83
2023/09/08 04:05:50;;;;;;;9.30;5.97;;;21.30;69.70;;;;;;5052226;28;20024;-84
2023/09/08 04:08:15;;;;;;;6.22;5.22;;;21.30;69.70;;;;;;5047851;28;20082;-84
2023/09/08 04:10:41;;;;;;;7.18;5.53;;;21.30;69.70;;;;;;5052921;28;20123;-84
2023/09/08 04:13:07;;;;;;;6.85;5.88;;;21.30;69.70;;;;;;5048136;28;20060;-85
2023/09/08 04:15:32;;;;;;;6.65;5.35;;;21.20;69.80;;;;;;5054449;28;20581;-84
2023/09/08 04:17:58;;;;;;;7.82;6.40;;;21.20;69.80;;;;;;5049102;28;20033;-84
2023/09/08 04:20:25;;;;;;;8.00;6.05;;;21.20;70.00;;;;;;5046792;28;20036;-84
2023/09/08 04:22:50;;;;;;;7.38;5.57;;;21.10;70.10;;;;;;5053574;28;20032;-84
2023/09/08 04:25:16;;;;;;;5.78;5.13;;;21.10;70.10;;;;;;5048128;28;20025;-84
2023/09/08 04:27:42;;;;;;;7.22;6.45;;;21.10;70.20;;;;;;5048806;28;20044;-84
2023/09/08 04:30:08;;;;;;;7.70;6.20;;;21.10;70.40;;;;;;5047773;28;20044;-83
2023/09/08 04:32:33;;;;;;;7.05;6.35;;;21.10;70.40;;;;;;5048877;28;20021;-85
2023/09/08 04:34:59;;;;;;;6.60;5.63;;;21.10;70.50;;;;;;5049187;28;20139;-85
2023/09/08 04:37:25;;;;;;;7.47;6.28;;;21.10;70.50;;;;;;5046230;28;20436;-85
2023/09/08 04:39:50;;;;;;;7.85;6.47;;;21.10;70.60;;;;;;5046843;28;20171;-84
2023/09/08 04:42:16;;;;;;;6.82;5.60;;;21.00;70.70;;;;;;5044590;28;20487;-84
2023/09/08 04:44:41;;;;;;;8.80;6.75;;;21.00;70.70;;;;;;5048846;28;20190;-85
2023/09/08 04:47:07;;;;;;;9.15;6.70;;;21.00;70.90;;;;;;5054985;28;20509;-84
2023/09/08 04:49:32;;;;;;;8.45;7.30;;;21.00;70.90;;;;;;5042475;28;20065;-85
2023/09/08 04:51:58;;;;;;;9.38;8.20;;;20.90;71.00;;;;;;5043980;28;20032;-83
2023/09/08 04:54:26;;;;;;;8.10;6.90;;;20.90;71.30;;;;;;5056579;28;20514;-85
2023/09/08 04:56:53;;;;;;;7.40;5.93;;;20.80;71.30;;;;;;5046994;28;20052;-85
2023/09/08 04:59:19;;;;;;;7.80;6.90;;;20.80;71.30;;;;;;5048034;28;20044;-83
2023/09/08 05:01:44;;;;;;;8.20;6.43;;;20.90;71.40;;;;;;5043459;28;20020;-82
2023/09/08 05:04:11;;;;;;;8.57;6.95;;;20.90;71.50;;;;;;5044926;28;20133;-85
2023/09/08 05:06:37;;;;;;;7.93;6.80;;;20.90;71.50;;;;;;5028347;28;20585;-85
2023/09/08 05:09:03;;;;;;;9.00;6.78;;;20.80;71.60;;;;;;5049861;28;20095;-84
2023/09/08 05:11:28;;;;;;;8.35;6.75;;;20.80;71.50;;;;;;5049034;28;20025;-85
2023/09/08 05:13:54;;;;;;;6.88;6.10;;;20.80;71.70;;;;;;5051909;28;20487;-84
2023/09/08 05:16:25;;;;;;;8.95;7.03;;;20.80;71.50;;;;;;5052014;28;20455;-84
2023/09/08 05:18:51;;;;;;;8.15;7.20;;;20.80;71.70;;;;;;5047897;28;20104;-84
2023/09/08 05:21:17;;;;;;;8.57;6.63;;;20.80;72.00;;;;;;5041476;28;20140;-85
2023/09/08 05:23:43;;;;;;;8.65;6.82;;;20.80;71.80;;;;;;5049430;28;20395;-84
2023/09/08 05:26:09;;;;;;;9.05;6.80;;;20.90;71.90;;;;;;5047419;28;20017;-83
2023/09/08 05:28:34;;;;;;;8.15;6.35;;;20.90;71.70;;;;;;5045297;28;20029;-84
2023/09/08 05:31:00;;;;;;;7.35;6.30;;;20.90;71.60;;;;;;5049790;28;20018;-83
2023/09/08 05:33:25;;;;;;;7.20;6.20;;;20.90;71.40;;;;;;5047335;28;20095;-84
2023/09/08 05:35:51;;;;;;;8.20;6.28;;;21.00;71.30;;;;;;5048934;28;20126;-83
2023/09/08 05:38:16;;;;;;;7.65;6.32;;;21.00;71.30;;;;;;5050173;28;20383;-82
2023/09/08 05:40:45;;;;;;;8.88;6.57;;;21.00;71.40;;;;;;5047433;28;20078;-84
2023/09/08 05:43:11;;;;;;;9.25;7.03;;;21.00;71.40;;;;;;5049145;28;20574;-85
2023/09/08 05:45:36;;;;;;;10.85;7.35;;;21.00;71.40;;;;;;5047333;28;20123;-84
2023/09/08 05:48:02;;;;;;;8.13;6.38;;;21.10;71.50;;;;;;5043094;28;20024;-85
2023/09/08 05:50:28;;;;;;;7.63;6.25;;;21.10;71.30;;;;;;5041916;28;20094;-84
2023/09/08 05:52:53;;;;;;;10.25;6.47;;;21.40;71.20;;;;;;5044149;28;20479;-83
2023/09/08 05:55:19;;;;;;;10.60;7.32;;;22.60;69.60;;;;;;5046075;28;20510;-84
2023/09/08 05:57:44;;;;;;;7.55;6.32;;;23.70;66.40;;;;;;5043712;28;20022;-85
2023/09/08 06:00:12;;;;;;;8.95;6.85;;;24.70;63.90;;;;;;5041599;28;20039;-85
2023/09/08 06:02:38;;;;;;;8.63;6.75;;;25.40;61.70;;;;;;5048672;28;20040;-86
2023/09/08 06:05:03;;;;;;;7.85;6.47;;;26.20;60.10;;;;;;5048635;28;20036;-87
2023/09/08 06:07:29;;;;;;;9.10;5.93;;;26.90;58.60;;;;;;5051136;28;20409;-87
2023/09/08 06:09:56;;;;;;;7.22;6.47;;;27.50;57.40;;;;;;5051902;28;20086;-87
2023/09/08 06:12:22;;;;;;;11.52;7.20;;;28.00;56.00;;;;;;5048449;28;20067;-86
2023/09/08 06:14:47;;;;;;;7.43;5.82;;;28.30;54.70;;;;;;5048669;28;20455;-85
2023/09/08 06:17:13;;;;;;;9.05;6.80;;;28.90;54.10;;;;;;5049680;28;21188;-85
2023/09/08 06:19:39;;;;;;;7.07;6.38;;;29.10;53.10;;;;;;5045334;28;20021;-86
2023/09/08 06:22:04;;;;;;;8.07;5.70;;;29.50;52.30;;;;;;5049034;28;20029;-86
2023/09/08 06:24:30;;;;;;;7.97;6.03;;;30.20;51.70;;;;;;5048952;28;20021;-86
2023/09/08 06:26:55;;;;;;;7.07;5.68;;;30.50;50.50;;;;;;5051502;28;20027;-86
2023/09/08 06:29:21;;;;;;;8.18;5.57;;;30.90;50.20;;;;;;5057315;28;20381;-86
2023/09/08 06:31:46;;;;;;;6.75;5.30;;;31.20;49.30;;;;;;5054830;28;20024;-86
2023/09/08 06:34:12;;;;;;;6.13;5.50;;;31.20;49.00;;;;;;5046178;28;20394;-85
2023/09/08 06:36:38;;;;;;;7.85;6.20;;;31.40;48.60;;;;;;5049540;28;20028;-84
2023/09/08 06:39:04;;;;;;;6.95;5.57;;;31.50;48.20;;;;;;5056072;28;20053;-85
2023/09/08 06:41:29;;;;;;;6.95;5.80;;;31.90;47.90;;;;;;5045006;28;20692;-84
2023/09/08 06:43:55;;;;;;;6.60;4.93;;;32.30;47.70;;;;;;5053587;28;20087;-84
2023/09/08 06:46:22;;;;;;;6.60;4.88;;;32.70;47.20;;;;;;5056762;28;20499;-85
2023/09/08 06:48:47;;;;;;;8.05;5.93;;;33.10;46.90;;;;;;5049230;28;20082;-85
2023/09/08 06:51:13;;;;;;;7.32;5.63;;;33.40;46.10;;;;;;5048829;28;20044;-85
2023/09/08 06:53:38;;;;;;;7.43;5.50;;;33.80;45.50;;;;;;5048709;28;20067;-85
2023/09/08 06:56:04;;;;;;;6.70;5.13;;;34.20;45.00;;;;;;5050141;28;20384;-85
2023/09/08 06:58:30;;;;;;;5.72;4.80;;;34.60;44.50;;;;;;5049543;28;20029;-84
2023/09/08 07:00:55;;;;;;;6.70;5.32;;;34.90;44.10;;;;;;5045349;28;20110;-84
2023/09/08 07:03:22;;;;;;;7.03;5.50;;;34.80;43.40;;;;;;5042782;28;20133;-81
2023/09/08 07:05:49;;;;;;;8.15;5.15;;;35.00;43.20;;;;;;5043822;28;20494;-85
2023/09/08 07:08:14;;;;;;;8.02;6.32;;;35.10;43.00;;;;;;5051084;28;20040;-86
2023/09/08 07:10:40;;;;;;;9.32;5.40;;;35.30;42.30;;;;;;5049937;28;20033;-86
2023/09/08 07:13:05;;;;;;;6.05;5.05;;;35.30;42.40;;;;;;5045756;28;20102;-83
2023/09/08 07:15:31;;;;;;;6.22;5.20;;;35.70;42.40;;;;;;5056570;28;20067;-85
2023/09/08 07:17:57;;;;;;;5.22;4.40;;;35.90;42.10;;;;;;5047941;28;20025;-84
2023/09/08 07:20:22;;;;;;;9.23;5.90;;;36.10;41.50;;;;;;5048070;28;20083;-84
2023/09/08 07:22:48;;;;;;;6.55;5.82;;;35.70;41.30;;;;;;5048216;28;20025;-85
2023/09/08 07:25:13;;;;;;;5.25;4.72;;;35.30;41.00;;;;;;5051522;28;20044;-86
2023/09/08 07:27:39;;;;;;;6.25;5.57;;;34.80;41.40;;;;;;5048583;28;20044;-86
2023/09/08 07:30:05;;;;;;;5.32;4.28;;;34.20;41.90;;;;;;5055010;28;20082;-84
2023/09/08 07:32:31;;;;;;;6.88;4.88;;;33.80;42.60;;;;;;5052841;28;20014;-86
2023/09/08 07:34:56;;;;;;;8.95;5.60;;;33.40;43.10;;;;;;5047642;28;20063;-86
2023/09/08 07:37:22;;;;;;;7.32;5.47;;;33.00;43.50;;;;;;5049253;28;20009;-85
2023/09/08 07:39:49;;;;;;;8.20;4.30;;;32.60;43.90;;;;;;5045863;28;20089;-86
2023/09/08 07:42:14;;;;;;;6.05;4.93;;;31.70;45.30;;;;;;5049115;28;20032;-83
2023/09/08 07:44:40;;;;;;;6.03;4.32;;;30.90;46.70;;;;;;5048416;28;20033;-83
2023/09/08 07:47:05;;;;;;;6.95;4.80;;;30.30;47.90;;;;;;5043722;28;20025;-83
2023/09/08 07:49:34;;;;;;;6.72;4.95;;;29.80;49.00;;;;;;5048295;28;20032;-84
2023/09/08 07:52:00;;;;;;;6.32;5.10;;;29.30;49.70;;;;;;5047462;28;20518;-84
2023/09/08 07:54:26;;;;;;;6.90;5.25;;;28.80;50.50;;;;;;5047074;28;20021;-83
2023/09/08 07:56:51;;;;;;;8.13;5.90;;;28.60;51.10;;;;;;5050817;28;20034;-84
2023/09/08 07:59:17;;;;;;;6.32;5.53;;;28.30;51.50;;;;;;5046444;28;20059;-88
2023/09/08 08:01:43;;;;;;;7.35;5.28;;;27.90;52.30;;;;;;5040549;28;20036;-86
2023/09/08 08:04:09;;;;;;;6.53;4.50;;;27.70;52.90;;;;;;5051121;28;20044;-86
2023/09/08 08:06:34;;;;;;;6.95;5.53;;;27.60;53.50;;;;;;5046436;28;20083;-86
2023/09/08 08:09:00;;;;;;;8.88;6.07;;;27.40;53.80;;;;;;5054861;28;20064;-85
2023/09/08 08:11:26;;;;;;;8.00;5.68;;;27.20;54.20;;;;;;5047347;28;20036;-85
2023/09/08 08:13:52;;;;;;;7.43;6.38;;;27.00;54.70;;;;;;5050007;28;20096;-88
2023/09/08 08:16:18;;;;;;;7.05;5.32;;;26.90;55.30;;;;;;5047917;28;20048;-88
2023/09/08 08:18:44;;;;;;;8.15;5.43;;;26.80;55.60;;;;;;5047301;28;20086;-86
2023/09/08 08:21:09;;;;;;;8.15;6.20;;;26.70;56.30;;;;;;5045372;28;20053;-86
2023/09/08 08:23:38;;;;;;;7.63;5.82;;;26.70;56.50;;;;;;5049293;28;20040;-88
2023/09/08 08:26:04;;;;;;;7.38;5.90;;;26.60;56.60;;;;;;5057459;28;20021;-86
2023/09/08 08:28:29;;;;;;;7.28;5.68;;;26.50;57.00;;;;;;5054484;28;20032;-87
2023/09/08 08:30:56;;;;;;;6.85;5.80;;;26.40;57.20;;;;;;5048054;28;20029;-85
2023/09/08 08:33:22;;;;;;;6.97;6.03;;;26.40;57.30;;;;;;5049740;28;20047;-88
2023/09/08 08:35:51;;;;;;;6.85;5.78;;;26.40;57.80;;;;;;5052067;28;20471;-87
2023/09/08 08:38:17;;;;;;;9.55;5.80;;;26.40;58.00;;;;;;5047526;28;20052;-84
2023/09/08 08:40:42;;;;;;;7.28;5.82;;;26.50;58.20;;;;;;5047042;28;20098;-86
2023/09/08 08:43:08;;;;;;;7.47;5.85;;;26.50;58.10;;;;;;5049576;28;20057;-86
2023/09/08 08:45:35;;;;;;;8.52;6.45;;;26.60;58.30;;;;;;5048641;28;20406;-94
2023/09/08 08:48:02;;;;;;;9.90;6.72;;;26.50;58.10;;;;;;5056574;28;20037;-87
2023/09/08 08:50:29;;;;;;;8.77;5.63;;;26.60;58.30;;;;;;5052230;28;20064;-87
2023/09/08 08:52:56;;;;;;;8.00;6.30;;;26.70;58.50;;;;;;5051471;28;20515;-88
2023/09/08 08:55:22;;;;;;;5.88;5.20;;;26.80;59.00;;;;;;5047829;28;20029;-87
2023/09/08 08:57:48;;;;;;;7.97;6.00;;;26.80;58.30;;;;;;5051995;28;20432;-85
2023/09/08 09:00:15;;;;;;;10.88;5.75;;;26.90;58.30;;;;;;5042881;28;20119;-86
2023/09/08 09:02:42;;;;;;;7.18;5.50;;;26.90;58.30;;;;;;5054354;28;20039;-86
2023/09/08 09:05:24;;;;;;;10.00;6.20;;;26.90;58.30;;;;;;5052616;28;20037;-93
2023/09/08 09:07:50;;;;;;;6.70;5.75;;;26.90;58.20;;;;;;5052440;28;20074;-92
2023/09/08 09:10:16;;;;;;;8.80;6.15;;;27.00;58.30;;;;;;5052098;28;20031;-92
2023/09/08 09:12:43;;;;;;;6.10;5.25;;;27.10;58.50;;;;;;5052413;28;20134;-89
2023/09/08 09:15:09;;;;;;;7.07;5.50;;;27.10;58.60;;;;;;5048416;28;20025;-89
2023/09/08 09:17:36;;;;;;;7.45;5.78;;;27.20;58.70;;;;;;5055537;28;20024;-89
2023/09/08 09:20:20;;;;;;;9.73;6.10;;;27.30;58.50;;;;;;5057357;28;20479;-87
2023/09/08 09:22:47;;;;;;;7.47;5.78;;;27.40;58.30;;;;;;5050624;28;20033;-88
2023/09/08 09:25:23;;;;;;;6.18;5.43;;;27.40;58.20;;;;;;5052545;28;20147;-90
2023/09/08 09:27:56;;;;;;;5.93;5.07;;;27.50;58.30;;;;;;5054041;28;20435;-89
2023/09/08 09:30:23;;;;;;;7.88;6.00;;;27.60;58.10;;;;;;5053653;28;20387;-89
2023/09/08 09:33:08;;;;;;;6.78;5.55;;;27.60;58.00;;;;;;5053765;28;20039;-89
2023/09/08 09:35:41;;;;;;;7.57;6.28;;;27.60;57.90;;;;;;5042090;28;20019;-88
2023/09/08 09:38:08;;;;;;;9.07;6.25;;;27.70;57.90;;;;;;5054880;28;20024;-89
2023/09/08 09:40:34;;;;;;;9.88;8.45;;;27.60;57.70;;;;;;5049990;28;20013;-90
2023/09/08 09:42:59;;;;;;;8.13;6.03;;;27.50;57.50;;;;;;5053102;28;20696;-90
2023/09/08 09:45:26;;;;;;;9.25;7.20;;;27.40;57.80;;;;;;5052017;28;20048;-90
2023/09/08 09:47:52;;;;;;;7.22;6.53;;;27.40;57.90;;;;;;5051709;28;20371;-89
2023/09/08 09:50:43;;;;;;;9.48;7.07;;;27.40;57.90;;;;;;5050062;28;20049;-89
2023/09/08 09:53:18;;;;;;;10.17;7.93;;;27.40;58.10;;;;;;5051067;28;20044;-91
2023/09/08 09:55:45;;;;;;;7.97;6.18;;;27.40;58.20;;;;;;5052002;28;20364;-89
2023/09/08 09:58:11;;;;;;;8.02;6.70;;;27.40;58.40;;;;;;5054015;28;20025;-88
2023/09/08 10:00:41;;;;;;;9.10;7.00;;;27.50;58.50;;;;;;5048293;28;20029;-89
2023/09/08 10:03:08;;;;;;;6.75;6.05;;;27.50;58.80;;;;;;5052766;28;20036;-89
2023/09/08 10:05:34;;;;;;;10.80;8.23;;;27.70;59.00;;;;;;5052161;28;20490;-90
2023/09/08 10:07:59;;;;;;;9.10;7.80;;;27.80;58.80;;;;;;5048503;28;20549;-89
2023/09/08 10:10:28;;;;;;;9.32;7.35;;;27.90;58.50;;;;;;5051806;28;20112;-89
2023/09/08 10:13:01;;;;;;;7.03;6.15;;;27.80;58.00;;;;;;5055477;28;20016;-89
2023/09/08 10:15:28;;;;;;;8.88;6.85;;;27.90;58.20;;;;;;5044586;28;20437;-90
2023/09/08 10:17:56;;;;;;;7.32;6.60;;;28.00;58.20;;;;;;5052784;28;20383;-89
2023/09/08 10:20:26;;;;;;;10.40;6.05;;;28.00;57.90;;;;;;5052953;28;20058;-91
2023/09/08 10:23:03;;;;;;;9.38;6.53;;;28.10;57.90;;;;;;5049324;28;20056;-91
2023/09/08 10:25:34;;;;;;;6.05;5.10;;;28.10;57.70;;;;;;5050824;28;20025;-90
2023/09/08 10:27:59;;;;;;;7.68;5.90;;;28.10;57.90;;;;;;5051125;28;20064;-91
2023/09/08 10:30:25;;;;;;;7.15;5.65;;;28.30;57.70;;;;;;5061375;28;20028;-90
2023/09/08 10:32:52;;;;;;;6.70;6.00;;;28.30;57.90;;;;;;5055518;28;20017;-89
2023/09/08 10:35:19;;;;;;;6.47;5.20;;;28.30;57.70;;;;;;5059307;28;20017;-89
2023/09/08 10:37:44;;;;;;;5.97;4.97;;;28.40;58.30;;;;;;5050816;28;20490;-89
2023/09/08 10:40:23;;;;;;;6.97;5.75;;;28.50;58.40;;;;;;5052504;28;20021;-90
2023/09/08 10:42:49;;;;;;;6.35;5.07;;;28.50;57.40;;;;;;5050087;28;20037;-89
2023/09/08 10:45:16;;;;;;;5.85;4.63;;;28.50;57.40;;;;;;5056055;28;20067;-89
2023/09/08 10:47:45;;;;;;;5.20;4.43;;;28.60;57.40;;;;;;5050346;28;20032;-88
2023/09/08 10:50:17;;;;;;;5.97;5.07;;;28.70;57.10;;;;;;5045837;28;20024;-90
2023/09/08 10:52:42;;;;;;;5.53;4.88;;;28.80;57.10;;;;;;5047452;28;20052;-90
2023/09/08 10:55:08;;;;;;;7.20;5.32;;;28.80;57.20;;;;;;5063436;28;20051;-89
2023/09/08 10:57:34;;;;;;;5.80;4.70;;;28.80;56.80;;;;;;5055066;28;20028;-88
2023/09/08 11:00:12;;;;;;;5.13;4.00;;;28.90;56.80;;;;;;5050153;28;20041;-89
2023/09/08 11:02:42;;;;;;;6.22;4.90;;;29.00;56.90;;;;;;5048208;28;20037;-89
2023/09/08 11:05:10;;;;;;;6.55;5.35;;;29.20;56.90;;;;;;5050686;28;20036;-88
2023/09/08 11:07:40;;;;;;;5.35;4.47;;;29.20;56.90;;;;;;5048538;28;20112;-88
2023/09/08 11:10:07;;;;;;;6.55;5.13;;;29.20;57.10;;;;;;5048567;28;20044;-89
2023/09/08 11:12:33;;;;;;;7.88;5.40;;;29.20;56.60;;;;;;5049565;28;20120;-88
2023/09/08 11:15:04;;;;;;;6.63;4.65;;;29.20;56.70;;;;;;5048939;28;20104;-88
2023/09/08 11:17:31;;;;;;;6.70;4.78;;;29.20;56.60;;;;;;5048933;28;20039;-89
2023/09/08 11:19:57;;;;;;;10.55;4.80;;;29.20;56.30;;;;;;5047283;28;20078;-88
2023/09/08 11:22:24;;;;;;;7.05;4.63;;;29.30;56.50;;;;;;5050510;28;20028;-88
2023/09/08 11:24:51;;;;;;;6.40;4.47;;;29.40;56.40;;;;;;5048461;28;20033;-88
2023/09/08 11:27:17;;;;;;;7.32;4.20;;;29.50;56.30;;;;;;5046120;28;20048;-88
2023/09/08 11:29:44;;;;;;;5.38;4.35;;;29.80;56.00;;;;;;5046631;28;20025;-88
2023/09/08 11:32:11;;;;;;;5.47;4.30;;;30.00;55.50;;;;;;5051282;28;20104;-87
2023/09/08 11:34:37;;;;;;;7.15;4.53;;;30.00;55.90;;;;;;5051071;28;20025;-91
2023/09/08 11:37:08;;;;;;;6.40;4.60;;;30.00;55.40;;;;;;5045092;28;20586;-89
2023/09/08 11:39:38;;;;;;;5.97;4.40;;;30.10;55.20;;;;;;5065754;28;20029;-88
2023/09/08 11:42:04;;;;;;;6.43;4.43;;;30.20;55.30;;;;;;5048586;28;20158;-90
2023/09/08 11:44:30;;;;;;;9.32;5.40;;;30.20;55.20;;;;;;5049437;28;20101;-90
2023/09/08 11:46:57;;;;;;;7.28;4.75;;;30.30;54.90;;;;;;5046590;28;20071;-89
2023/09/08 11:49:23;;;;;;;4.50;3.83;;;30.40;54.10;;;;;;5047053;28;20039;-89
2023/09/08 11:51:49;;;;;;;5.13;3.65;;;30.60;54.00;;;;;;5049700;28;20021;-91
2023/09/08 11:54:15;;;;;;;4.97;3.92;;;30.70;53.00;;;;;;5047853;28;20021;-90
2023/09/08 11:56:41;;;;;;;4.60;3.40;;;30.80;53.00;;;;;;5042868;28;20079;-91
2023/09/08 11:59:07;;;;;;;5.45;3.90;;;30.90;53.00;;;;;;5049215;28;20162;-91
2023/09/08 12:01:33;;;;;;;5.65;4.30;;;31.10;52.80;;;;;;5046597;28;20032;-90
2023/09/08 12:03:59;;;;;;;8.60;4.57;;;31.00;52.50;;;;;;5047744;28;20414;-89
2023/09/08 12:06:28;;;;;;;4.50;3.85;;;31.00;52.30;;;;;;5047511;28;20029;-90
2023/09/08 12:09:02;;;;;;;6.18;4.13;;;31.00;52.80;;;;;;5045342;28;20021;-90
2023/09/08 12:11:34;;;;;;;6.03;4.50;;;31.20;52.60;;;;;;5047025;28;20025;-90
2023/09/08 12:14:01;;;;;;;4.85;4.10;;;31.00;53.00;;;;;;5064348;28;20060;-88
2023/09/08 12:16:26;;;;;;;4.95;4.00;;;31.10;52.70;;;;;;5045062;28;20598;-88
2023/09/08 12:18:52;;;;;;;6.50;3.90;;;31.30;52.70;;;;;;5048630;28;20108;-91
2023/09/08 12:21:18;;;;;;;5.55;4.65;;;31.40;53.30;;;;;;5047407;28;20035;-92
2023/09/08 12:23:52;;;;;;;5.28;4.18;;;31.40;52.30;;;;;;5046893;28;20055;-91
2023/09/08 12:26:18;;;;;;;4.97;3.83;;;31.40;52.30;;;;;;5047924;28;20037;-91
2023/09/08 12:28:46;;;;;;;4.45;4.05;;;31.50;52.30;;;;;;5051676;28;20033;-91
2023/09/08 12:31:16;;;;;;;6.00;4.30;;;31.60;52.40;;;;;;5052453;28;20601;-90
2023/09/08 12:33:46;;;;;;;4.70;3.80;;;31.60;52.40;;;;;;5048907;28;20395;-91
2023/09/08 12:36:24;;;;;;;4.85;4.20;;;31.60;52.60;;;;;;5041274;28;20796;-90
2023/09/08 12:38:51;;;;;;;6.97;4.68;;;31.70;52.50;;;;;;5046075;28;20108;-91
2023/09/08 12:41:17;;;;;;;5.57;4.35;;;31.80;52.60;;;;;;5044747;28;20021;-93
2023/09/08 12:43:43;;;;;;;5.35;4.40;;;31.80;52.50;;;;;;5049457;28;20052;-92